sensor_id;sensor_type;location;lat;lon;timestamp;P1;durP1;ratioP1;P2;durP2;ratioP2
57443;SDS011;43289;52.962;6.196;2023-08-06T00:00:47;18.00;;;14.00;;
57443;SDS011;43289;52.962;6.196;2023-08-06T00:03:13;16.95;;;12.02;;
57443;SDS011;43289;52.962;6.196;2023-08-06T00:05:41;15.88;;;12.30;;
57443;SDS011;43289;52.962;6.196;2023-08-06T00:08:08;24.75;;;15.57;;
57443;SDS011;43289;52.962;6.196;2023-08-06T00:10:34;24.38;;;16.25;;
57443;SDS011;43289;52.962;6.196;2023-08-06T00:13:00;19.83;;;15.75;;
57443;SDS011;43289;52.962;6.196;2023-08-06T00:15:25;23.60;;;14.18;;
57443;SDS011;43289;52.962;6.196;2023-08-06T00:17:51;20.83;;;13.75;;
57443;SDS011;43289;52.962;6.196;2023-08-06T00:20:17;26.60;;;17.52;;
57443;SDS011;43289;52.962;6.196;2023-08-06T00:22:43;23.45;;;14.27;;
57443;SDS011;43289;52.962;6.196;2023-08-06T00:25:09;29.05;;;17.27;;
57443;SDS011;43289;52.962;6.196;2023-08-06T00:27:35;27.92;;;14.73;;
57443;SDS011;43289;52.962;6.196;2023-08-06T00:30:02;26.23;;;17.30;;
57443;SDS011;43289;52.962;6.196;2023-08-06T00:32:28;21.05;;;13.93;;
57443;SDS011;43289;52.962;6.196;2023-08-06T00:34:54;18.73;;;14.20;;
57443;SDS011;43289;52.962;6.196;2023-08-06T00:37:20;20.95;;;14.50;;
57443;SDS011;43289;52.962;6.196;2023-08-06T00:39:46;20.42;;;13.70;;
57443;SDS011;43289;52.962;6.196;2023-08-06T00:42:12;23.30;;;14.98;;
57443;SDS011;43289;52.962;6.196;2023-08-06T00:44:38;23.80;;;16.10;;
57443;SDS011;43289;52.962;6.196;2023-08-06T00:47:05;22.45;;;12.93;;
57443;SDS011;43289;52.962;6.196;2023-08-06T00:49:31;20.45;;;13.57;;
57443;SDS011;43289;52.962;6.196;2023-08-06T00:51:57;22.75;;;16.48;;
57443;SDS011;43289;52.962;6.196;2023-08-06T00:54:23;22.40;;;14.73;;
57443;SDS011;43289;52.962;6.196;2023-08-06T00:56:50;25.17;;;17.05;;
57443;SDS011;43289;52.962;6.196;2023-08-06T00:59:16;19.63;;;13.13;;
57443;SDS011;43289;52.962;6.196;2023-08-06T01:01:42;22.70;;;15.35;;
57443;SDS011;43289;52.962;6.196;2023-08-06T01:04:09;19.40;;;13.20;;
57443;SDS011;43289;52.962;6.196;2023-08-06T01:06:39;18.20;;;14.15;;
57443;SDS011;43289;52.962;6.196;2023-08-06T01:09:27;20.75;;;14.82;;
57443;SDS011;43289;52.962;6.196;2023-08-06T01:12:00;24.42;;;14.15;;
57443;SDS011;43289;52.962;6.196;2023-08-06T01:17:24;25.33;;;14.77;;
57443;SDS011;43289;52.962;6.196;2023-08-06T01:19:51;20.25;;;14.32;;
57443;SDS011;43289;52.962;6.196;2023-08-06T01:22:17;26.67;;;16.38;;
57443;SDS011;43289;52.962;6.196;2023-08-06T01:24:45;22.40;;;14.40;;
57443;SDS011;43289;52.962;6.196;2023-08-06T01:27:14;23.38;;;17.00;;
57443;SDS011;43289;52.962;6.196;2023-08-06T01:29:53;26.40;;;16.90;;
57443;SDS011;43289;52.962;6.196;2023-08-06T01:32:22;26.33;;;16.70;;
57443;SDS011;43289;52.962;6.196;2023-08-06T01:34:49;22.83;;;16.75;;
57443;SDS011;43289;52.962;6.196;2023-08-06T01:37:16;21.60;;;14.55;;
57443;SDS011;43289;52.962;6.196;2023-08-06T01:39:50;26.80;;;16.75;;
57443;SDS011;43289;52.962;6.196;2023-08-06T01:42:16;24.77;;;18.17;;
57443;SDS011;43289;52.962;6.196;2023-08-06T01:44:42;26.63;;;17.35;;
57443;SDS011;43289;52.962;6.196;2023-08-06T01:47:08;24.45;;;16.23;;
57443;SDS011;43289;52.962;6.196;2023-08-06T01:49:34;20.77;;;14.48;;
57443;SDS011;43289;52.962;6.196;2023-08-06T01:51:59;19.92;;;14.57;;
57443;SDS011;43289;52.962;6.196;2023-08-06T01:54:26;23.10;;;16.08;;
57443;SDS011;43289;52.962;6.196;2023-08-06T01:56:52;23.45;;;14.32;;
57443;SDS011;43289;52.962;6.196;2023-08-06T01:59:18;28.90;;;15.68;;
57443;SDS011;43289;52.962;6.196;2023-08-06T02:01:44;27.73;;;17.17;;
57443;SDS011;43289;52.962;6.196;2023-08-06T02:04:10;20.40;;;14.57;;
57443;SDS011;43289;52.962;6.196;2023-08-06T02:06:36;23.65;;;16.05;;
57443;SDS011;43289;52.962;6.196;2023-08-06T02:09:02;27.67;;;18.30;;
57443;SDS011;43289;52.962;6.196;2023-08-06T02:11:29;19.20;;;14.55;;
57443;SDS011;43289;52.962;6.196;2023-08-06T02:13:54;20.05;;;14.55;;
57443;SDS011;43289;52.962;6.196;2023-08-06T02:16:20;22.98;;;15.05;;
57443;SDS011;43289;52.962;6.196;2023-08-06T02:18:46;26.40;;;17.40;;
57443;SDS011;43289;52.962;6.196;2023-08-06T02:21:12;21.80;;;15.80;;
57443;SDS011;43289;52.962;6.196;2023-08-06T02:23:38;16.75;;;12.43;;
57443;SDS011;43289;52.962;6.196;2023-08-06T02:26:04;24.00;;;15.15;;
57443;SDS011;43289;52.962;6.196;2023-08-06T02:28:31;26.58;;;17.25;;
57443;SDS011;43289;52.962;6.196;2023-08-06T02:30:57;20.75;;;16.85;;
57443;SDS011;43289;52.962;6.196;2023-08-06T02:33:23;25.02;;;16.27;;
57443;SDS011;43289;52.962;6.196;2023-08-06T02:35:49;22.25;;;13.93;;
57443;SDS011;43289;52.962;6.196;2023-08-06T02:38:15;27.33;;;17.20;;
57443;SDS011;43289;52.962;6.196;2023-08-06T02:40:47;24.48;;;15.95;;
57443;SDS011;43289;52.962;6.196;2023-08-06T02:43:13;20.23;;;14.43;;
57443;SDS011;43289;52.962;6.196;2023-08-06T02:45:39;18.45;;;13.20;;
57443;SDS011;43289;52.962;6.196;2023-08-06T02:48:05;21.27;;;14.30;;
57443;SDS011;43289;52.962;6.196;2023-08-06T02:50:37;20.00;;;12.77;;
57443;SDS011;43289;52.962;6.196;2023-08-06T02:53:04;20.52;;;13.85;;
57443;SDS011;43289;52.962;6.196;2023-08-06T02:55:31;16.88;;;12.02;;
57443;SDS011;43289;52.962;6.196;2023-08-06T02:57:57;26.33;;;16.52;;
57443;SDS011;43289;52.962;6.196;2023-08-06T03:00:23;22.88;;;15.07;;
57443;SDS011;43289;52.962;6.196;2023-08-06T03:02:49;26.73;;;16.15;;
57443;SDS011;43289;52.962;6.196;2023-08-06T03:05:15;20.20;;;13.57;;
57443;SDS011;43289;52.962;6.196;2023-08-06T03:07:41;21.23;;;14.07;;
57443;SDS011;43289;52.962;6.196;2023-08-06T03:10:07;17.92;;;13.20;;
57443;SDS011;43289;52.962;6.196;2023-08-06T03:12:33;22.30;;;14.23;;
57443;SDS011;43289;52.962;6.196;2023-08-06T03:14:59;19.92;;;12.98;;
57443;SDS011;43289;52.962;6.196;2023-08-06T03:17:25;18.08;;;11.23;;
57443;SDS011;43289;52.962;6.196;2023-08-06T03:19:50;24.05;;;15.07;;
57443;SDS011;43289;52.962;6.196;2023-08-06T03:22:16;18.88;;;13.43;;
57443;SDS011;43289;52.962;6.196;2023-08-06T03:24:42;18.92;;;11.85;;
57443;SDS011;43289;52.962;6.196;2023-08-06T03:27:08;20.08;;;13.90;;
57443;SDS011;43289;52.962;6.196;2023-08-06T03:29:34;16.65;;;12.32;;
57443;SDS011;43289;52.962;6.196;2023-08-06T03:32:00;23.02;;;15.02;;
57443;SDS011;43289;52.962;6.196;2023-08-06T03:34:26;20.42;;;12.75;;
57443;SDS011;43289;52.962;6.196;2023-08-06T03:36:52;20.25;;;13.80;;
57443;SDS011;43289;52.962;6.196;2023-08-06T03:39:18;22.95;;;13.40;;
57443;SDS011;43289;52.962;6.196;2023-08-06T03:41:44;24.85;;;14.48;;
57443;SDS011;43289;52.962;6.196;2023-08-06T03:44:10;26.60;;;15.65;;
57443;SDS011;43289;52.962;6.196;2023-08-06T03:46:36;21.25;;;15.23;;
57443;SDS011;43289;52.962;6.196;2023-08-06T03:49:02;18.73;;;12.70;;
57443;SDS011;43289;52.962;6.196;2023-08-06T03:51:28;22.05;;;15.13;;
57443;SDS011;43289;52.962;6.196;2023-08-06T03:56:58;19.45;;;13.38;;
57443;SDS011;43289;52.962;6.196;2023-08-06T03:59:24;21.45;;;12.35;;
57443;SDS011;43289;52.962;6.196;2023-08-06T04:01:53;22.25;;;12.65;;
57443;SDS011;43289;52.962;6.196;2023-08-06T04:04:19;29.83;;;16.13;;
57443;SDS011;43289;52.962;6.196;2023-08-06T04:06:45;28.80;;;13.77;;
57443;SDS011;43289;52.962;6.196;2023-08-06T04:09:10;20.63;;;12.77;;
57443;SDS011;43289;52.962;6.196;2023-08-06T04:11:36;23.80;;;15.75;;
57443;SDS011;43289;52.962;6.196;2023-08-06T04:14:02;24.92;;;15.05;;
57443;SDS011;43289;52.962;6.196;2023-08-06T04:16:28;25.45;;;13.32;;
57443;SDS011;43289;52.962;6.196;2023-08-06T04:18:54;23.10;;;14.85;;
57443;SDS011;43289;52.962;6.196;2023-08-06T04:21:20;32.80;;;18.27;;
57443;SDS011;43289;52.962;6.196;2023-08-06T04:23:46;17.10;;;12.80;;
57443;SDS011;43289;52.962;6.196;2023-08-06T04:26:12;23.95;;;14.93;;
57443;SDS011;43289;52.962;6.196;2023-08-06T04:28:38;19.52;;;13.35;;
57443;SDS011;43289;52.962;6.196;2023-08-06T04:31:04;18.67;;;14.45;;
57443;SDS011;43289;52.962;6.196;2023-08-06T04:33:30;22.50;;;14.90;;
57443;SDS011;43289;52.962;6.196;2023-08-06T04:35:56;22.98;;;12.85;;
57443;SDS011;43289;52.962;6.196;2023-08-06T04:38:23;23.80;;;15.15;;
57443;SDS011;43289;52.962;6.196;2023-08-06T04:40:50;20.55;;;13.82;;
57443;SDS011;43289;52.962;6.196;2023-08-06T04:43:16;21.38;;;15.63;;
57443;SDS011;43289;52.962;6.196;2023-08-06T04:45:45;33.10;;;19.50;;
57443;SDS011;43289;52.962;6.196;2023-08-06T04:48:12;24.27;;;14.57;;
57443;SDS011;43289;52.962;6.196;2023-08-06T04:50:38;24.23;;;14.88;;
57443;SDS011;43289;52.962;6.196;2023-08-06T04:53:04;20.92;;;13.95;;
57443;SDS011;43289;52.962;6.196;2023-08-06T04:55:30;19.92;;;14.27;;
57443;SDS011;43289;52.962;6.196;2023-08-06T04:57:56;19.98;;;13.85;;
57443;SDS011;43289;52.962;6.196;2023-08-06T05:00:22;22.08;;;14.57;;
57443;SDS011;43289;52.962;6.196;2023-08-06T05:02:48;21.85;;;14.00;;
57443;SDS011;43289;52.962;6.196;2023-08-06T05:05:13;20.00;;;13.80;;
57443;SDS011;43289;52.962;6.196;2023-08-06T05:11:02;26.50;;;16.33;;
57443;SDS011;43289;52.962;6.196;2023-08-06T05:13:28;24.88;;;15.73;;
57443;SDS011;43289;52.962;6.196;2023-08-06T05:15:54;19.27;;;13.82;;
57443;SDS011;43289;52.962;6.196;2023-08-06T05:18:20;18.33;;;14.07;;
57443;SDS011;43289;52.962;6.196;2023-08-06T05:20:46;24.03;;;14.10;;
57443;SDS011;43289;52.962;6.196;2023-08-06T05:23:12;19.75;;;12.80;;
57443;SDS011;43289;52.962;6.196;2023-08-06T05:25:38;28.50;;;16.67;;
57443;SDS011;43289;52.962;6.196;2023-08-06T05:28:04;24.23;;;14.35;;
57443;SDS011;43289;52.962;6.196;2023-08-06T05:30:30;24.30;;;13.65;;
57443;SDS011;43289;52.962;6.196;2023-08-06T05:32:56;14.93;;;12.00;;
57443;SDS011;43289;52.962;6.196;2023-08-06T05:35:22;18.95;;;14.43;;
57443;SDS011;43289;52.962;6.196;2023-08-06T05:37:49;22.15;;;13.95;;
57443;SDS011;43289;52.962;6.196;2023-08-06T05:40:15;19.05;;;13.48;;
57443;SDS011;43289;52.962;6.196;2023-08-06T05:42:41;18.67;;;13.23;;
57443;SDS011;43289;52.962;6.196;2023-08-06T05:45:08;20.00;;;14.77;;
57443;SDS011;43289;52.962;6.196;2023-08-06T05:47:34;20.27;;;13.95;;
57443;SDS011;43289;52.962;6.196;2023-08-06T05:50:00;24.48;;;13.15;;
57443;SDS011;43289;52.962;6.196;2023-08-06T05:52:26;24.15;;;14.80;;
57443;SDS011;43289;52.962;6.196;2023-08-06T05:54:52;18.02;;;12.82;;
57443;SDS011;43289;52.962;6.196;2023-08-06T05:57:20;22.45;;;13.40;;
57443;SDS011;43289;52.962;6.196;2023-08-06T05:59:46;24.75;;;13.18;;
57443;SDS011;43289;52.962;6.196;2023-08-06T06:02:12;13.88;;;12.38;;
57443;SDS011;43289;52.962;6.196;2023-08-06T06:04:38;21.85;;;13.77;;
57443;SDS011;43289;52.962;6.196;2023-08-06T06:07:04;15.98;;;12.35;;
57443;SDS011;43289;52.962;6.196;2023-08-06T06:09:30;14.80;;;11.63;;
57443;SDS011;43289;52.962;6.196;2023-08-06T06:11:56;14.25;;;12.25;;
57443;SDS011;43289;52.962;6.196;2023-08-06T06:17:13;15.63;;;12.07;;
57443;SDS011;43289;52.962;6.196;2023-08-06T06:19:39;15.82;;;12.18;;
57443;SDS011;43289;52.962;6.196;2023-08-06T06:22:05;14.98;;;12.20;;
57443;SDS011;43289;52.962;6.196;2023-08-06T06:24:31;16.08;;;11.63;;
57443;SDS011;43289;52.962;6.196;2023-08-06T06:26:57;13.05;;;10.43;;
57443;SDS011;43289;52.962;6.196;2023-08-06T06:29:23;12.10;;;10.13;;
57443;SDS011;43289;52.962;6.196;2023-08-06T06:31:49;16.23;;;11.18;;
57443;SDS011;43289;52.962;6.196;2023-08-06T06:34:15;15.30;;;12.85;;
57443;SDS011;43289;52.962;6.196;2023-08-06T06:36:41;12.90;;;11.50;;
57443;SDS011;43289;52.962;6.196;2023-08-06T06:39:07;13.30;;;10.57;;
57443;SDS011;43289;52.962;6.196;2023-08-06T06:41:33;12.48;;;10.85;;
57443;SDS011;43289;52.962;6.196;2023-08-06T06:43:59;13.32;;;11.15;;
57443;SDS011;43289;52.962;6.196;2023-08-06T06:46:25;14.02;;;10.45;;
57443;SDS011;43289;52.962;6.196;2023-08-06T06:48:51;16.33;;;11.48;;
57443;SDS011;43289;52.962;6.196;2023-08-06T06:54:20;16.63;;;11.48;;
57443;SDS011;43289;52.962;6.196;2023-08-06T06:56:46;12.60;;;10.00;;
57443;SDS011;43289;52.962;6.196;2023-08-06T06:59:12;12.90;;;10.45;;
57443;SDS011;43289;52.962;6.196;2023-08-06T07:01:38;14.95;;;11.85;;
57443;SDS011;43289;52.962;6.196;2023-08-06T07:04:04;12.95;;;10.68;;
57443;SDS011;43289;52.962;6.196;2023-08-06T07:06:30;16.60;;;11.88;;
57443;SDS011;43289;52.962;6.196;2023-08-06T07:08:56;12.18;;;10.40;;
57443;SDS011;43289;52.962;6.196;2023-08-06T07:11:23;14.00;;;11.15;;
57443;SDS011;43289;52.962;6.196;2023-08-06T07:13:49;13.32;;;9.82;;
57443;SDS011;43289;52.962;6.196;2023-08-06T07:16:15;23.05;;;10.73;;
57443;SDS011;43289;52.962;6.196;2023-08-06T07:18:42;14.43;;;10.18;;
57443;SDS011;43289;52.962;6.196;2023-08-06T07:21:08;10.85;;;9.35;;
57443;SDS011;43289;52.962;6.196;2023-08-06T07:27:02;10.88;;;9.77;;
57443;SDS011;43289;52.962;6.196;2023-08-06T07:29:28;12.18;;;10.32;;
57443;SDS011;43289;52.962;6.196;2023-08-06T07:31:54;12.50;;;10.57;;
57443;SDS011;43289;52.962;6.196;2023-08-06T07:34:20;12.80;;;10.15;;
57443;SDS011;43289;52.962;6.196;2023-08-06T07:36:46;14.27;;;11.05;;
57443;SDS011;43289;52.962;6.196;2023-08-06T07:39:12;11.07;;;9.73;;
57443;SDS011;43289;52.962;6.196;2023-08-06T07:41:38;11.70;;;9.32;;
57443;SDS011;43289;52.962;6.196;2023-08-06T07:44:06;12.90;;;9.98;;
57443;SDS011;43289;52.962;6.196;2023-08-06T07:46:32;11.38;;;9.27;;
57443;SDS011;43289;52.962;6.196;2023-08-06T07:48:58;13.38;;;10.98;;
57443;SDS011;43289;52.962;6.196;2023-08-06T07:51:24;10.98;;;9.82;;
57443;SDS011;43289;52.962;6.196;2023-08-06T07:53:50;12.57;;;9.88;;
57443;SDS011;43289;52.962;6.196;2023-08-06T07:56:18;11.50;;;9.55;;
57443;SDS011;43289;52.962;6.196;2023-08-06T07:58:44;12.50;;;10.05;;
57443;SDS011;43289;52.962;6.196;2023-08-06T08:01:10;11.70;;;9.85;;
57443;SDS011;43289;52.962;6.196;2023-08-06T08:03:36;9.32;;;8.32;;
57443;SDS011;43289;52.962;6.196;2023-08-06T08:06:02;10.40;;;8.63;;
57443;SDS011;43289;52.962;6.196;2023-08-06T08:08:28;14.77;;;9.48;;
57443;SDS011;43289;52.962;6.196;2023-08-06T08:10:54;10.73;;;9.13;;
57443;SDS011;43289;52.962;6.196;2023-08-06T08:13:20;11.93;;;8.82;;
57443;SDS011;43289;52.962;6.196;2023-08-06T08:15:46;9.40;;;8.40;;
57443;SDS011;43289;52.962;6.196;2023-08-06T08:18:12;9.73;;;8.70;;
57443;SDS011;43289;52.962;6.196;2023-08-06T08:20:38;12.35;;;8.35;;
57443;SDS011;43289;52.962;6.196;2023-08-06T08:23:04;10.10;;;9.10;;
57443;SDS011;43289;52.962;6.196;2023-08-06T08:25:30;9.43;;;8.05;;
57443;SDS011;43289;52.962;6.196;2023-08-06T08:27:56;8.90;;;7.75;;
57443;SDS011;43289;52.962;6.196;2023-08-06T08:30:22;10.40;;;9.02;;
57443;SDS011;43289;52.962;6.196;2023-08-06T08:32:50;10.00;;;7.38;;
57443;SDS011;43289;52.962;6.196;2023-08-06T08:35:16;9.82;;;7.55;;
57443;SDS011;43289;52.962;6.196;2023-08-06T08:37:42;11.38;;;8.25;;
57443;SDS011;43289;52.962;6.196;2023-08-06T08:40:09;9.15;;;7.28;;
57443;SDS011;43289;52.962;6.196;2023-08-06T08:42:36;9.57;;;8.60;;
57443;SDS011;43289;52.962;6.196;2023-08-06T08:45:04;9.65;;;8.65;;
57443;SDS011;43289;52.962;6.196;2023-08-06T08:47:30;12.80;;;7.75;;
57443;SDS011;43289;52.962;6.196;2023-08-06T08:49:56;9.98;;;8.20;;
57443;SDS011;43289;52.962;6.196;2023-08-06T08:52:23;10.10;;;8.48;;
57443;SDS011;43289;52.962;6.196;2023-08-06T08:54:50;9.80;;;7.55;;
57443;SDS011;43289;52.962;6.196;2023-08-06T08:57:17;9.48;;;6.88;;
57443;SDS011;43289;52.962;6.196;2023-08-06T09:03:06;10.07;;;7.28;;
57443;SDS011;43289;52.962;6.196;2023-08-06T09:05:32;10.00;;;7.88;;
57443;SDS011;43289;52.962;6.196;2023-08-06T09:08:01;9.00;;;7.20;;
57443;SDS011;43289;52.962;6.196;2023-08-06T09:10:28;9.18;;;6.57;;
57443;SDS011;43289;52.962;6.196;2023-08-06T09:12:54;8.15;;;6.13;;
57443;SDS011;43289;52.962;6.196;2023-08-06T09:15:23;9.43;;;7.03;;
57443;SDS011;43289;52.962;6.196;2023-08-06T09:17:50;9.70;;;7.13;;
57443;SDS011;43289;52.962;6.196;2023-08-06T09:22:52;8.55;;;7.00;;
57443;SDS011;43289;52.962;6.196;2023-08-06T09:25:24;7.30;;;6.13;;
57443;SDS011;43289;52.962;6.196;2023-08-06T09:27:52;6.95;;;5.93;;
57443;SDS011;43289;52.962;6.196;2023-08-06T09:30:31;9.35;;;6.95;;
57443;SDS011;43289;52.962;6.196;2023-08-06T09:32:57;8.82;;;6.30;;
57443;SDS011;43289;52.962;6.196;2023-08-06T09:35:23;8.40;;;6.47;;
57443;SDS011;43289;52.962;6.196;2023-08-06T09:37:49;10.20;;;6.90;;
57443;SDS011;43289;52.962;6.196;2023-08-06T09:40:26;7.03;;;6.32;;
57443;SDS011;43289;52.962;6.196;2023-08-06T09:42:52;7.05;;;5.80;;
57443;SDS011;43289;52.962;6.196;2023-08-06T09:45:18;6.70;;;5.60;;
57443;SDS011;43289;52.962;6.196;2023-08-06T09:47:44;10.05;;;6.20;;
57443;SDS011;43289;52.962;6.196;2023-08-06T09:50:17;7.38;;;5.22;;
57443;SDS011;43289;52.962;6.196;2023-08-06T09:52:43;6.10;;;4.88;;
57443;SDS011;43289;52.962;6.196;2023-08-06T09:55:13;7.28;;;5.40;;
57443;SDS011;43289;52.962;6.196;2023-08-06T09:57:42;7.63;;;5.50;;
57443;SDS011;43289;52.962;6.196;2023-08-06T10:06:22;7.82;;;4.95;;
57443;SDS011;43289;52.962;6.196;2023-08-06T10:08:49;8.15;;;5.25;;
57443;SDS011;43289;52.962;6.196;2023-08-06T10:11:15;7.00;;;4.90;;
57443;SDS011;43289;52.962;6.196;2023-08-06T10:13:42;6.35;;;4.93;;
57443;SDS011;43289;52.962;6.196;2023-08-06T10:16:09;8.00;;;4.20;;
57443;SDS011;43289;52.962;6.196;2023-08-06T10:18:38;5.75;;;3.95;;
57443;SDS011;43289;52.962;6.196;2023-08-06T10:21:07;6.38;;;4.90;;
57443;SDS011;43289;52.962;6.196;2023-08-06T10:23:33;6.68;;;4.30;;
57443;SDS011;43289;52.962;6.196;2023-08-06T10:26:00;7.35;;;4.68;;
57443;SDS011;43289;52.962;6.196;2023-08-06T10:28:38;7.03;;;4.60;;
57443;SDS011;43289;52.962;6.196;2023-08-06T10:31:05;5.53;;;4.25;;
57443;SDS011;43289;52.962;6.196;2023-08-06T10:33:47;5.75;;;4.07;;
57443;SDS011;43289;52.962;6.196;2023-08-06T10:36:16;5.53;;;4.05;;
57443;SDS011;43289;52.962;6.196;2023-08-06T10:38:44;4.95;;;3.78;;
57443;SDS011;43289;52.962;6.196;2023-08-06T10:41:14;6.32;;;4.00;;
57443;SDS011;43289;52.962;6.196;2023-08-06T10:43:41;5.60;;;4.00;;
57443;SDS011;43289;52.962;6.196;2023-08-06T10:46:27;5.55;;;3.50;;
57443;SDS011;43289;52.962;6.196;2023-08-06T10:48:53;4.77;;;3.53;;
57443;SDS011;43289;52.962;6.196;2023-08-06T10:51:19;6.10;;;3.38;;
57443;SDS011;43289;52.962;6.196;2023-08-06T10:53:46;8.35;;;2.83;;
57443;SDS011;43289;52.962;6.196;2023-08-06T10:58:39;4.47;;;2.53;;
57443;SDS011;43289;52.962;6.196;2023-08-06T11:01:05;4.15;;;2.30;;
57443;SDS011;43289;52.962;6.196;2023-08-06T11:03:31;3.22;;;2.03;;
57443;SDS011;43289;52.962;6.196;2023-08-06T11:05:59;3.28;;;2.00;;
57443;SDS011;43289;52.962;6.196;2023-08-06T11:08:25;3.65;;;2.10;;
57443;SDS011;43289;52.962;6.196;2023-08-06T11:10:52;2.95;;;2.15;;
57443;SDS011;43289;52.962;6.196;2023-08-06T11:13:18;3.40;;;1.88;;
57443;SDS011;43289;52.962;6.196;2023-08-06T11:15:45;5.35;;;2.40;;
57443;SDS011;43289;52.962;6.196;2023-08-06T11:18:11;6.90;;;2.13;;
57443;SDS011;43289;52.962;6.196;2023-08-06T11:20:37;5.70;;;2.15;;
57443;SDS011;43289;52.962;6.196;2023-08-06T11:23:04;10.38;;;3.85;;
57443;SDS011;43289;52.962;6.196;2023-08-06T11:25:30;3.58;;;1.90;;
57443;SDS011;43289;52.962;6.196;2023-08-06T11:27:56;4.25;;;2.20;;
57443;SDS011;43289;52.962;6.196;2023-08-06T11:30:22;3.65;;;2.08;;
57443;SDS011;43289;52.962;6.196;2023-08-06T11:32:48;4.82;;;1.98;;
57443;SDS011;43289;52.962;6.196;2023-08-06T11:35:14;3.03;;;2.20;;
57443;SDS011;43289;52.962;6.196;2023-08-06T11:37:44;4.82;;;2.30;;
57443;SDS011;43289;52.962;6.196;2023-08-06T11:40:14;3.45;;;2.25;;
57443;SDS011;43289;52.962;6.196;2023-08-06T11:42:40;3.00;;;2.08;;
57443;SDS011;43289;52.962;6.196;2023-08-06T11:45:07;5.03;;;2.15;;
57443;SDS011;43289;52.962;6.196;2023-08-06T11:47:39;3.00;;;1.75;;
57443;SDS011;43289;52.962;6.196;2023-08-06T11:50:06;4.90;;;2.20;;
57443;SDS011;43289;52.962;6.196;2023-08-06T11:52:32;6.32;;;2.10;;
57443;SDS011;43289;52.962;6.196;2023-08-06T11:57:31;3.53;;;2.38;;
57443;SDS011;43289;52.962;6.196;2023-08-06T12:00:03;5.35;;;2.70;;
57443;SDS011;43289;52.962;6.196;2023-08-06T12:02:31;2.85;;;1.50;;
57443;SDS011;43289;52.962;6.196;2023-08-06T12:05:18;4.55;;;2.50;;
57443;SDS011;43289;52.962;6.196;2023-08-06T12:07:49;6.07;;;2.60;;
57443;SDS011;43289;52.962;6.196;2023-08-06T12:10:16;3.45;;;2.20;;
57443;SDS011;43289;52.962;6.196;2023-08-06T12:12:44;4.88;;;2.15;;
57443;SDS011;43289;52.962;6.196;2023-08-06T12:15:10;2.92;;;2.15;;
57443;SDS011;43289;52.962;6.196;2023-08-06T12:17:36;3.67;;;2.17;;
57443;SDS011;43289;52.962;6.196;2023-08-06T12:20:03;4.50;;;2.55;;
57443;SDS011;43289;52.962;6.196;2023-08-06T12:22:29;3.80;;;2.28;;
57443;SDS011;43289;52.962;6.196;2023-08-06T12:25:04;4.20;;;2.58;;
57443;SDS011;43289;52.962;6.196;2023-08-06T12:27:33;4.95;;;2.28;;
57443;SDS011;43289;52.962;6.196;2023-08-06T12:29:59;6.03;;;2.30;;
57443;SDS011;43289;52.962;6.196;2023-08-06T12:32:25;4.43;;;2.10;;
57443;SDS011;43289;52.962;6.196;2023-08-06T12:34:51;33.53;;;7.97;;
57443;SDS011;43289;52.962;6.196;2023-08-06T12:37:17;7.07;;;2.72;;
57443;SDS011;43289;52.962;6.196;2023-08-06T12:39:43;3.92;;;2.53;;
57443;SDS011;43289;52.962;6.196;2023-08-06T12:42:09;4.90;;;2.30;;
57443;SDS011;43289;52.962;6.196;2023-08-06T12:44:35;4.47;;;2.60;;
57443;SDS011;43289;52.962;6.196;2023-08-06T12:47:01;4.68;;;2.20;;
57443;SDS011;43289;52.962;6.196;2023-08-06T12:49:27;4.78;;;2.55;;
57443;SDS011;43289;52.962;6.196;2023-08-06T12:51:54;4.50;;;2.45;;
57443;SDS011;43289;52.962;6.196;2023-08-06T12:54:21;4.80;;;2.22;;
57443;SDS011;43289;52.962;6.196;2023-08-06T12:56:47;5.63;;;2.33;;
57443;SDS011;43289;52.962;6.196;2023-08-06T12:59:14;3.65;;;2.30;;
57443;SDS011;43289;52.962;6.196;2023-08-06T13:01:40;5.00;;;2.45;;
57443;SDS011;43289;52.962;6.196;2023-08-06T13:04:06;4.60;;;2.40;;
57443;SDS011;43289;52.962;6.196;2023-08-06T13:06:32;7.20;;;2.40;;
57443;SDS011;43289;52.962;6.196;2023-08-06T13:09:02;4.85;;;2.78;;
57443;SDS011;43289;52.962;6.196;2023-08-06T13:11:28;4.65;;;2.80;;
57443;SDS011;43289;52.962;6.196;2023-08-06T13:13:55;6.28;;;2.45;;
57443;SDS011;43289;52.962;6.196;2023-08-06T13:16:21;7.03;;;2.50;;
57443;SDS011;43289;52.962;6.196;2023-08-06T13:18:47;3.17;;;2.10;;
57443;SDS011;43289;52.962;6.196;2023-08-06T13:21:13;5.30;;;2.58;;
57443;SDS011;43289;52.962;6.196;2023-08-06T13:23:39;4.70;;;2.35;;
57443;SDS011;43289;52.962;6.196;2023-08-06T13:26:05;6.18;;;2.22;;
57443;SDS011;43289;52.962;6.196;2023-08-06T13:28:31;3.58;;;2.35;;
57443;SDS011;43289;52.962;6.196;2023-08-06T13:30:57;5.03;;;2.38;;
57443;SDS011;43289;52.962;6.196;2023-08-06T13:33:23;3.72;;;2.58;;
57443;SDS011;43289;52.962;6.196;2023-08-06T13:35:49;4.25;;;2.40;;
57443;SDS011;43289;52.962;6.196;2023-08-06T13:38:15;9.80;;;2.70;;
57443;SDS011;43289;52.962;6.196;2023-08-06T13:40:41;5.43;;;2.70;;
57443;SDS011;43289;52.962;6.196;2023-08-06T13:43:09;6.07;;;2.92;;
57443;SDS011;43289;52.962;6.196;2023-08-06T13:45:35;4.88;;;2.33;;
57443;SDS011;43289;52.962;6.196;2023-08-06T13:48:03;5.10;;;2.50;;
57443;SDS011;43289;52.962;6.196;2023-08-06T13:50:29;4.57;;;2.40;;
57443;SDS011;43289;52.962;6.196;2023-08-06T13:52:55;3.85;;;2.15;;
57443;SDS011;43289;52.962;6.196;2023-08-06T13:55:21;5.13;;;2.70;;
57443;SDS011;43289;52.962;6.196;2023-08-06T13:57:47;5.78;;;2.45;;
57443;SDS011;43289;52.962;6.196;2023-08-06T14:00:14;4.53;;;2.67;;
57443;SDS011;43289;52.962;6.196;2023-08-06T14:02:40;4.88;;;2.80;;
57443;SDS011;43289;52.962;6.196;2023-08-06T14:05:08;5.88;;;2.92;;
57443;SDS011;43289;52.962;6.196;2023-08-06T14:07:35;4.90;;;2.40;;
57443;SDS011;43289;52.962;6.196;2023-08-06T14:10:01;5.68;;;2.40;;
57443;SDS011;43289;52.962;6.196;2023-08-06T14:12:27;4.45;;;2.47;;
57443;SDS011;43289;52.962;6.196;2023-08-06T14:14:53;4.88;;;2.50;;
57443;SDS011;43289;52.962;6.196;2023-08-06T14:17:19;3.85;;;2.92;;
57443;SDS011;43289;52.962;6.196;2023-08-06T14:19:45;4.45;;;2.75;;
57443;SDS011;43289;52.962;6.196;2023-08-06T14:22:10;5.15;;;2.80;;
57443;SDS011;43289;52.962;6.196;2023-08-06T14:24:37;6.35;;;2.67;;
57443;SDS011;43289;52.962;6.196;2023-08-06T14:27:03;4.50;;;2.75;;
57443;SDS011;43289;52.962;6.196;2023-08-06T14:29:31;5.53;;;2.90;;
57443;SDS011;43289;52.962;6.196;2023-08-06T14:31:57;5.07;;;2.72;;
57443;SDS011;43289;52.962;6.196;2023-08-06T14:34:23;4.75;;;2.60;;
57443;SDS011;43289;52.962;6.196;2023-08-06T14:36:49;4.45;;;2.38;;
57443;SDS011;43289;52.962;6.196;2023-08-06T14:39:15;6.00;;;3.00;;
57443;SDS011;43289;52.962;6.196;2023-08-06T14:41:41;6.10;;;2.90;;
57443;SDS011;43289;52.962;6.196;2023-08-06T14:44:07;4.25;;;2.67;;
57443;SDS011;43289;52.962;6.196;2023-08-06T14:46:33;4.82;;;2.85;;
57443;SDS011;43289;52.962;6.196;2023-08-06T14:48:59;4.43;;;2.95;;
57443;SDS011;43289;52.962;6.196;2023-08-06T14:51:25;4.93;;;3.00;;
57443;SDS011;43289;52.962;6.196;2023-08-06T14:53:51;5.10;;;3.30;;
57443;SDS011;43289;52.962;6.196;2023-08-06T14:56:17;5.10;;;2.83;;
57443;SDS011;43289;52.962;6.196;2023-08-06T14:58:43;5.45;;;2.88;;
57443;SDS011;43289;52.962;6.196;2023-08-06T15:01:09;4.90;;;3.17;;
57443;SDS011;43289;52.962;6.196;2023-08-06T15:03:35;4.93;;;2.80;;
57443;SDS011;43289;52.962;6.196;2023-08-06T15:06:01;3.58;;;2.97;;